sensor_id;sensor_type;location;lat;lon;timestamp;P1;durP1;ratioP1;P2;durP2;ratioP2
13085;SDS011;6609;49.882;8.664;2023-02-25T00:00:44;6.40;;;2.80;;
13085;SDS011;6609;49.882;8.664;2023-02-25T00:03:14;7.53;;;2.93;;
13085;SDS011;6609;49.882;8.664;2023-02-25T00:05:43;6.67;;;2.57;;
13085;SDS011;6609;49.882;8.664;2023-02-25T00:08:10;5.77;;;2.83;;
13085;SDS011;6609;49.882;8.664;2023-02-25T00:10:37;10.83;;;2.37;;
13085;SDS011;6609;49.882;8.664;2023-02-25T00:13:04;6.70;;;3.00;;
13085;SDS011;6609;49.882;8.664;2023-02-25T00:15:31;4.83;;;2.40;;
13085;SDS011;6609;49.882;8.664;2023-02-25T00:17:58;6.53;;;2.43;;
13085;SDS011;6609;49.882;8.664;2023-02-25T00:20:26;8.60;;;2.47;;
13085;SDS011;6609;49.882;8.664;2023-02-25T00:22:53;6.47;;;2.10;;
13085;SDS011;6609;49.882;8.664;2023-02-25T00:25:20;7.10;;;2.40;;
13085;SDS011;6609;49.882;8.664;2023-02-25T00:27:47;5.90;;;2.20;;
13085;SDS011;6609;49.882;8.664;2023-02-25T00:30:14;9.17;;;3.30;;
13085;SDS011;6609;49.882;8.664;2023-02-25T00:32:41;7.97;;;2.40;;
13085;SDS011;6609;49.882;8.664;2023-02-25T00:35:08;8.80;;;2.40;;
13085;SDS011;6609;49.882;8.664;2023-02-25T00:37:38;7.50;;;3.07;;
13085;SDS011;6609;49.882;8.664;2023-02-25T00:40:05;7.33;;;2.87;;
13085;SDS011;6609;49.882;8.664;2023-02-25T00:42:38;8.47;;;2.90;;
13085;SDS011;6609;49.882;8.664;2023-02-25T00:45:06;6.80;;;2.90;;
13085;SDS011;6609;49.882;8.664;2023-02-25T00:47:33;9.37;;;4.17;;
13085;SDS011;6609;49.882;8.664;2023-02-25T00:50:00;7.87;;;3.10;;
13085;SDS011;6609;49.882;8.664;2023-02-25T00:52:28;7.60;;;3.27;;
13085;SDS011;6609;49.882;8.664;2023-02-25T00:54:56;6.67;;;3.10;;
13085;SDS011;6609;49.882;8.664;2023-02-25T00:57:23;5.97;;;3.10;;
13085;SDS011;6609;49.882;8.664;2023-02-25T00:59:49;5.47;;;2.57;;
13085;SDS011;6609;49.882;8.664;2023-02-25T01:02:16;5.80;;;2.90;;
13085;SDS011;6609;49.882;8.664;2023-02-25T01:04:43;6.90;;;2.87;;
13085;SDS011;6609;49.882;8.664;2023-02-25T01:07:10;9.23;;;3.97;;
13085;SDS011;6609;49.882;8.664;2023-02-25T01:09:37;12.63;;;3.47;;
13085;SDS011;6609;49.882;8.664;2023-02-25T01:12:06;7.20;;;2.90;;
13085;SDS011;6609;49.882;8.664;2023-02-25T01:14:33;7.03;;;2.83;;
13085;SDS011;6609;49.882;8.664;2023-02-25T01:16:59;8.07;;;2.93;;
13085;SDS011;6609;49.882;8.664;2023-02-25T01:19:27;8.97;;;3.30;;
13085;SDS011;6609;49.882;8.664;2023-02-25T01:21:55;7.50;;;2.87;;
13085;SDS011;6609;49.882;8.664;2023-02-25T01:24:23;9.03;;;3.80;;
13085;SDS011;6609;49.882;8.664;2023-02-25T01:26:53;5.50;;;2.77;;
13085;SDS011;6609;49.882;8.664;2023-02-25T01:29:22;5.40;;;2.67;;
13085;SDS011;6609;49.882;8.664;2023-02-25T01:31:51;6.50;;;3.47;;
13085;SDS011;6609;49.882;8.664;2023-02-25T01:34:18;6.20;;;2.90;;
13085;SDS011;6609;49.882;8.664;2023-02-25T01:36:45;8.83;;;3.80;;
13085;SDS011;6609;49.882;8.664;2023-02-25T01:39:16;11.60;;;4.23;;
13085;SDS011;6609;49.882;8.664;2023-02-25T01:41:44;8.57;;;3.90;;
13085;SDS011;6609;49.882;8.664;2023-02-25T01:44:13;10.07;;;3.87;;
13085;SDS011;6609;49.882;8.664;2023-02-25T01:46:43;7.47;;;3.53;;
13085;SDS011;6609;49.882;8.664;2023-02-25T01:49:12;7.77;;;4.00;;
13085;SDS011;6609;49.882;8.664;2023-02-25T01:51:43;7.10;;;3.70;;
13085;SDS011;6609;49.882;8.664;2023-02-25T01:54:13;11.30;;;5.03;;
13085;SDS011;6609;49.882;8.664;2023-02-25T01:56:41;7.83;;;4.07;;
13085;SDS011;6609;49.882;8.664;2023-02-25T01:59:12;11.10;;;5.50;;
13085;SDS011;6609;49.882;8.664;2023-02-25T02:01:39;6.87;;;4.20;;
13085;SDS011;6609;49.882;8.664;2023-02-25T02:04:09;9.33;;;4.93;;
13085;SDS011;6609;49.882;8.664;2023-02-25T02:06:39;10.47;;;4.67;;
13085;SDS011;6609;49.882;8.664;2023-02-25T02:09:09;10.27;;;4.77;;
13085;SDS011;6609;49.882;8.664;2023-02-25T02:11:38;10.77;;;4.37;;
13085;SDS011;6609;49.882;8.664;2023-02-25T02:14:05;9.27;;;4.73;;
13085;SDS011;6609;49.882;8.664;2023-02-25T02:16:43;9.43;;;4.40;;
13085;SDS011;6609;49.882;8.664;2023-02-25T02:19:26;9.37;;;3.90;;
13085;SDS011;6609;49.882;8.664;2023-02-25T02:22:05;8.73;;;4.83;;
13085;SDS011;6609;49.882;8.664;2023-02-25T02:24:56;8.53;;;4.83;;
13085;SDS011;6609;49.882;8.664;2023-02-25T02:27:45;9.47;;;4.90;;
13085;SDS011;6609;49.882;8.664;2023-02-25T02:30:39;6.33;;;3.77;;
13085;SDS011;6609;49.882;8.664;2023-02-25T02:33:15;8.97;;;5.20;;
13085;SDS011;6609;49.882;8.664;2023-02-25T02:35:48;8.97;;;5.63;;
13085;SDS011;6609;49.882;8.664;2023-02-25T02:38:22;7.60;;;4.23;;
13085;SDS011;6609;49.882;8.664;2023-02-25T02:40:56;9.13;;;3.97;;
13085;SDS011;6609;49.882;8.664;2023-02-25T02:43:33;10.10;;;4.27;;
13085;SDS011;6609;49.882;8.664;2023-02-25T02:46:06;8.10;;;3.70;;
13085;SDS011;6609;49.882;8.664;2023-02-25T02:48:41;9.03;;;3.70;;
13085;SDS011;6609;49.882;8.664;2023-02-25T02:51:11;8.80;;;3.47;;
13085;SDS011;6609;49.882;8.664;2023-02-25T02:53:43;8.43;;;2.93;;
13085;SDS011;6609;49.882;8.664;2023-02-25T02:56:16;11.87;;;4.57;;
13085;SDS011;6609;49.882;8.664;2023-02-25T02:58:45;15.67;;;4.67;;
13085;SDS011;6609;49.882;8.664;2023-02-25T03:01:14;14.10;;;4.03;;
13085;SDS011;6609;49.882;8.664;2023-02-25T03:03:46;12.50;;;4.50;;
13085;SDS011;6609;49.882;8.664;2023-02-25T03:06:18;11.47;;;4.47;;
13085;SDS011;6609;49.882;8.664;2023-02-25T03:08:48;13.03;;;3.53;;
13085;SDS011;6609;49.882;8.664;2023-02-25T03:11:15;9.90;;;3.43;;
13085;SDS011;6609;49.882;8.664;2023-02-25T03:13:42;11.53;;;3.87;;
13085;SDS011;6609;49.882;8.664;2023-02-25T03:16:11;11.30;;;3.57;;
13085;SDS011;6609;49.882;8.664;2023-02-25T03:18:46;8.83;;;3.43;;
13085;SDS011;6609;49.882;8.664;2023-02-25T03:21:18;12.63;;;3.63;;
13085;SDS011;6609;49.882;8.664;2023-02-25T03:23:48;8.57;;;3.57;;
13085;SDS011;6609;49.882;8.664;2023-02-25T03:26:17;11.10;;;3.63;;
13085;SDS011;6609;49.882;8.664;2023-02-25T03:28:48;11.50;;;3.37;;
13085;SDS011;6609;49.882;8.664;2023-02-25T03:31:16;19.50;;;4.70;;
13085;SDS011;6609;49.882;8.664;2023-02-25T03:33:49;9.57;;;4.23;;
13085;SDS011;6609;49.882;8.664;2023-02-25T03:36:20;17.70;;;4.90;;
13085;SDS011;6609;49.882;8.664;2023-02-25T03:38:50;12.50;;;3.83;;
13085;SDS011;6609;49.882;8.664;2023-02-25T03:41:20;11.40;;;3.73;;
13085;SDS011;6609;49.882;8.664;2023-02-25T03:43:51;12.30;;;3.80;;
13085;SDS011;6609;49.882;8.664;2023-02-25T03:46:20;11.97;;;4.00;;
13085;SDS011;6609;49.882;8.664;2023-02-25T03:48:49;10.43;;;4.00;;
13085;SDS011;6609;49.882;8.664;2023-02-25T03:51:17;13.30;;;3.50;;
13085;SDS011;6609;49.882;8.664;2023-02-25T03:53:48;13.07;;;3.67;;
13085;SDS011;6609;49.882;8.664;2023-02-25T03:56:16;10.93;;;3.80;;
13085;SDS011;6609;49.882;8.664;2023-02-25T03:58:43;11.50;;;3.53;;
13085;SDS011;6609;49.882;8.664;2023-02-25T04:04:24;9.30;;;3.50;;
13085;SDS011;6609;49.882;8.664;2023-02-25T04:06:51;10.90;;;3.83;;
13085;SDS011;6609;49.882;8.664;2023-02-25T04:09:18;9.83;;;3.53;;
13085;SDS011;6609;49.882;8.664;2023-02-25T04:11:45;13.70;;;3.60;;
13085;SDS011;6609;49.882;8.664;2023-02-25T04:14:13;9.80;;;3.50;;
13085;SDS011;6609;49.882;8.664;2023-02-25T04:16:42;11.40;;;3.97;;
13085;SDS011;6609;49.882;8.664;2023-02-25T04:19:09;9.57;;;4.57;;
13085;SDS011;6609;49.882;8.664;2023-02-25T04:21:37;7.93;;;3.10;;
13085;SDS011;6609;49.882;8.664;2023-02-25T04:24:04;8.63;;;3.23;;
13085;SDS011;6609;49.882;8.664;2023-02-25T04:26:32;14.47;;;4.47;;
13085;SDS011;6609;49.882;8.664;2023-02-25T04:28:59;12.30;;;3.87;;
13085;SDS011;6609;49.882;8.664;2023-02-25T04:31:26;5.47;;;2.67;;
13085;SDS011;6609;49.882;8.664;2023-02-25T04:33:53;6.47;;;2.97;;
13085;SDS011;6609;49.882;8.664;2023-02-25T04:36:25;13.67;;;3.63;;
13085;SDS011;6609;49.882;8.664;2023-02-25T04:38:55;11.47;;;4.17;;
13085;SDS011;6609;49.882;8.664;2023-02-25T04:41:22;11.43;;;4.27;;
13085;SDS011;6609;49.882;8.664;2023-02-25T04:43:49;11.70;;;3.60;;
13085;SDS011;6609;49.882;8.664;2023-02-25T04:46:16;10.93;;;4.37;;
13085;SDS011;6609;49.882;8.664;2023-02-25T04:48:43;14.07;;;4.27;;
13085;SDS011;6609;49.882;8.664;2023-02-25T04:51:10;11.47;;;4.23;;
13085;SDS011;6609;49.882;8.664;2023-02-25T04:53:37;13.77;;;3.63;;
13085;SDS011;6609;49.882;8.664;2023-02-25T04:56:06;10.90;;;3.40;;
13085;SDS011;6609;49.882;8.664;2023-02-25T04:58:34;8.90;;;4.13;;
13085;SDS011;6609;49.882;8.664;2023-02-25T05:01:03;9.93;;;4.13;;
13085;SDS011;6609;49.882;8.664;2023-02-25T05:03:30;15.30;;;4.30;;
13085;SDS011;6609;49.882;8.664;2023-02-25T05:05:57;9.67;;;4.00;;
13085;SDS011;6609;49.882;8.664;2023-02-25T05:08:24;7.37;;;3.33;;
13085;SDS011;6609;49.882;8.664;2023-02-25T05:10:51;11.43;;;3.93;;
13085;SDS011;6609;49.882;8.664;2023-02-25T05:13:20;11.70;;;2.93;;
13085;SDS011;6609;49.882;8.664;2023-02-25T05:15:47;12.20;;;3.97;;
13085;SDS011;6609;49.882;8.664;2023-02-25T05:18:14;9.13;;;3.57;;
13085;SDS011;6609;49.882;8.664;2023-02-25T05:20:41;16.07;;;4.23;;
13085;SDS011;6609;49.882;8.664;2023-02-25T05:23:08;11.00;;;3.77;;
13085;SDS011;6609;49.882;8.664;2023-02-25T05:25:35;10.77;;;3.63;;
13085;SDS011;6609;49.882;8.664;2023-02-25T05:28:05;11.10;;;3.83;;
13085;SDS011;6609;49.882;8.664;2023-02-25T05:30:33;14.67;;;3.53;;
13085;SDS011;6609;49.882;8.664;2023-02-25T05:33:01;15.93;;;4.57;;
13085;SDS011;6609;49.882;8.664;2023-02-25T05:35:28;15.30;;;4.33;;
13085;SDS011;6609;49.882;8.664;2023-02-25T05:37:56;13.13;;;4.20;;
13085;SDS011;6609;49.882;8.664;2023-02-25T05:40:23;12.63;;;3.67;;
13085;SDS011;6609;49.882;8.664;2023-02-25T05:42:50;13.30;;;3.37;;
13085;SDS011;6609;49.882;8.664;2023-02-25T05:45:17;10.20;;;2.77;;
13085;SDS011;6609;49.882;8.664;2023-02-25T05:47:47;10.63;;;3.47;;
13085;SDS011;6609;49.882;8.664;2023-02-25T05:50:14;10.30;;;3.63;;
13085;SDS011;6609;49.882;8.664;2023-02-25T05:52:41;13.73;;;3.77;;
13085;SDS011;6609;49.882;8.664;2023-02-25T05:55:09;13.90;;;4.07;;
13085;SDS011;6609;49.882;8.664;2023-02-25T05:57:36;8.33;;;2.87;;
13085;SDS011;6609;49.882;8.664;2023-02-25T06:00:04;13.43;;;3.23;;
13085;SDS011;6609;49.882;8.664;2023-02-25T06:02:33;12.03;;;3.13;;
13085;SDS011;6609;49.882;8.664;2023-02-25T06:05:02;16.40;;;4.10;;
13085;SDS011;6609;49.882;8.664;2023-02-25T06:07:30;11.77;;;3.33;;
13085;SDS011;6609;49.882;8.664;2023-02-25T06:09:57;12.73;;;2.17;;
13085;SDS011;6609;49.882;8.664;2023-02-25T06:12:25;8.77;;;3.00;;
13085;SDS011;6609;49.882;8.664;2023-02-25T06:14:54;10.50;;;4.47;;
13085;SDS011;6609;49.882;8.664;2023-02-25T06:17:21;13.07;;;4.33;;
13085;SDS011;6609;49.882;8.664;2023-02-25T06:19:49;8.33;;;2.80;;
13085;SDS011;6609;49.882;8.664;2023-02-25T06:22:17;9.77;;;4.27;;
13085;SDS011;6609;49.882;8.664;2023-02-25T06:24:44;7.57;;;3.63;;
13085;SDS011;6609;49.882;8.664;2023-02-25T06:27:12;12.30;;;3.87;;
13085;SDS011;6609;49.882;8.664;2023-02-25T06:29:39;11.70;;;3.20;;
13085;SDS011;6609;49.882;8.664;2023-02-25T06:32:06;8.50;;;2.77;;
13085;SDS011;6609;49.882;8.664;2023-02-25T06:34:34;8.07;;;3.03;;
13085;SDS011;6609;49.882;8.664;2023-02-25T06:37:00;8.50;;;3.20;;
13085;SDS011;6609;49.882;8.664;2023-02-25T06:39:29;7.90;;;3.00;;
13085;SDS011;6609;49.882;8.664;2023-02-25T06:41:55;11.17;;;3.47;;
13085;SDS011;6609;49.882;8.664;2023-02-25T06:44:22;12.03;;;3.00;;
13085;SDS011;6609;49.882;8.664;2023-02-25T06:46:51;17.37;;;3.27;;
13085;SDS011;6609;49.882;8.664;2023-02-25T06:49:19;14.40;;;3.30;;
13085;SDS011;6609;49.882;8.664;2023-02-25T06:51:46;12.87;;;3.63;;
13085;SDS011;6609;49.882;8.664;2023-02-25T06:54:14;13.80;;;3.50;;
13085;SDS011;6609;49.882;8.664;2023-02-25T06:56:42;13.87;;;3.23;;
13085;SDS011;6609;49.882;8.664;2023-02-25T06:59:10;10.47;;;3.00;;
13085;SDS011;6609;49.882;8.664;2023-02-25T07:01:37;9.10;;;3.33;;
13085;SDS011;6609;49.882;8.664;2023-02-25T07:04:05;12.23;;;3.37;;
13085;SDS011;6609;49.882;8.664;2023-02-25T07:06:32;9.73;;;2.90;;
13085;SDS011;6609;49.882;8.664;2023-02-25T07:08:59;11.93;;;3.20;;
13085;SDS011;6609;49.882;8.664;2023-02-25T07:11:27;11.27;;;2.57;;
13085;SDS011;6609;49.882;8.664;2023-02-25T07:13:56;9.60;;;3.23;;
13085;SDS011;6609;49.882;8.664;2023-02-25T07:16:24;9.63;;;3.50;;
13085;SDS011;6609;49.882;8.664;2023-02-25T07:18:50;8.03;;;3.07;;
13085;SDS011;6609;49.882;8.664;2023-02-25T07:21:17;15.10;;;4.00;;
13085;SDS011;6609;49.882;8.664;2023-02-25T07:23:48;11.10;;;3.00;;
13085;SDS011;6609;49.882;8.664;2023-02-25T07:26:15;10.03;;;3.17;;
13085;SDS011;6609;49.882;8.664;2023-02-25T07:28:42;11.53;;;2.43;;
13085;SDS011;6609;49.882;8.664;2023-02-25T07:31:11;12.07;;;3.27;;
13085;SDS011;6609;49.882;8.664;2023-02-25T07:33:39;13.47;;;3.93;;
13085;SDS011;6609;49.882;8.664;2023-02-25T07:36:06;13.80;;;3.50;;
13085;SDS011;6609;49.882;8.664;2023-02-25T07:38:34;9.77;;;3.50;;
13085;SDS011;6609;49.882;8.664;2023-02-25T07:41:04;7.63;;;3.10;;
13085;SDS011;6609;49.882;8.664;2023-02-25T07:43:32;12.70;;;3.40;;
13085;SDS011;6609;49.882;8.664;2023-02-25T07:46:00;12.40;;;3.83;;
13085;SDS011;6609;49.882;8.664;2023-02-25T07:48:30;11.20;;;2.87;;
13085;SDS011;6609;49.882;8.664;2023-02-25T07:51:03;8.60;;;2.83;;
13085;SDS011;6609;49.882;8.664;2023-02-25T07:53:30;12.73;;;3.83;;
13085;SDS011;6609;49.882;8.664;2023-02-25T07:55:57;9.03;;;2.87;;
13085;SDS011;6609;49.882;8.664;2023-02-25T07:58:24;9.30;;;3.00;;
13085;SDS011;6609;49.882;8.664;2023-02-25T08:00:52;10.30;;;2.90;;
13085;SDS011;6609;49.882;8.664;2023-02-25T08:03:19;13.60;;;3.33;;
13085;SDS011;6609;49.882;8.664;2023-02-25T08:05:50;13.73;;;3.97;;
13085;SDS011;6609;49.882;8.664;2023-02-25T08:08:18;9.20;;;2.77;;
13085;SDS011;6609;49.882;8.664;2023-02-25T08:10:45;18.20;;;3.70;;
13085;SDS011;6609;49.882;8.664;2023-02-25T08:13:12;7.27;;;3.27;;
13085;SDS011;6609;49.882;8.664;2023-02-25T08:15:40;8.07;;;3.47;;
13085;SDS011;6609;49.882;8.664;2023-02-25T08:18:07;12.97;;;3.57;;
13085;SDS011;6609;49.882;8.664;2023-02-25T08:20:34;15.87;;;3.40;;
13085;SDS011;6609;49.882;8.664;2023-02-25T08:23:03;12.23;;;4.27;;
13085;SDS011;6609;49.882;8.664;2023-02-25T08:25:30;8.70;;;3.33;;
13085;SDS011;6609;49.882;8.664;2023-02-25T08:27:57;9.20;;;3.30;;
13085;SDS011;6609;49.882;8.664;2023-02-25T08:30:24;13.00;;;3.73;;
13085;SDS011;6609;49.882;8.664;2023-02-25T08:32:51;12.63;;;4.70;;
13085;SDS011;6609;49.882;8.664;2023-02-25T08:39:01;9.87;;;3.23;;
13085;SDS011;6609;49.882;8.664;2023-02-25T08:41:28;7.90;;;3.03;;
13085;SDS011;6609;49.882;8.664;2023-02-25T08:43:56;7.90;;;3.40;;
13085;SDS011;6609;49.882;8.664;2023-02-25T08:46:25;8.67;;;3.13;;
13085;SDS011;6609;49.882;8.664;2023-02-25T08:48:53;14.20;;;3.97;;
13085;SDS011;6609;49.882;8.664;2023-02-25T08:51:21;9.43;;;4.23;;
13085;SDS011;6609;49.882;8.664;2023-02-25T08:53:49;10.53;;;4.50;;
13085;SDS011;6609;49.882;8.664;2023-02-25T08:56:17;6.03;;;3.17;;
13085;SDS011;6609;49.882;8.664;2023-02-25T08:58:44;9.17;;;3.77;;
13085;SDS011;6609;49.882;8.664;2023-02-25T09:01:12;7.23;;;4.07;;
13085;SDS011;6609;49.882;8.664;2023-02-25T09:03:40;8.87;;;3.90;;
13085;SDS011;6609;49.882;8.664;2023-02-25T09:06:15;12.57;;;4.10;;
13085;SDS011;6609;49.882;8.664;2023-02-25T09:08:42;12.10;;;4.07;;
13085;SDS011;6609;49.882;8.664;2023-02-25T09:11:09;12.57;;;3.53;;
13085;SDS011;6609;49.882;8.664;2023-02-25T09:13:37;8.13;;;3.67;;
13085;SDS011;6609;49.882;8.664;2023-02-25T09:16:04;7.43;;;3.40;;
13085;SDS011;6609;49.882;8.664;2023-02-25T09:18:31;8.53;;;3.50;;
13085;SDS011;6609;49.882;8.664;2023-02-25T09:20:58;9.33;;;3.63;;
13085;SDS011;6609;49.882;8.664;2023-02-25T09:23:25;9.13;;;3.70;;
13085;SDS011;6609;49.882;8.664;2023-02-25T09:25:52;11.67;;;4.77;;
13085;SDS011;6609;49.882;8.664;2023-02-25T09:28:19;8.83;;;3.73;;
13085;SDS011;6609;49.882;8.664;2023-02-25T09:30:47;13.53;;;4.47;;
13085;SDS011;6609;49.882;8.664;2023-02-25T09:33:14;10.60;;;3.77;;
13085;SDS011;6609;49.882;8.664;2023-02-25T09:35:41;13.10;;;4.10;;
13085;SDS011;6609;49.882;8.664;2023-02-25T09:38:09;9.90;;;4.23;;
13085;SDS011;6609;49.882;8.664;2023-02-25T09:40:37;5.13;;;3.17;;
13085;SDS011;6609;49.882;8.664;2023-02-25T09:43:06;10.33;;;3.93;;
13085;SDS011;6609;49.882;8.664;2023-02-25T09:45:47;14.17;;;5.23;;
13085;SDS011;6609;49.882;8.664;2023-02-25T09:48:18;9.30;;;3.63;;
13085;SDS011;6609;49.882;8.664;2023-02-25T09:50:50;8.30;;;3.07;;
13085;SDS011;6609;49.882;8.664;2023-02-25T09:53:19;14.37;;;3.50;;
13085;SDS011;6609;49.882;8.664;2023-02-25T09:55:48;7.40;;;3.17;;
13085;SDS011;6609;49.882;8.664;2023-02-25T09:58:19;10.27;;;3.57;;
13085;SDS011;6609;49.882;8.664;2023-02-25T10:00:49;10.63;;;3.33;;
13085;SDS011;6609;49.882;8.664;2023-02-25T10:03:38;8.23;;;3.70;;
13085;SDS011;6609;49.882;8.664;2023-02-25T10:06:16;12.17;;;3.37;;
13085;SDS011;6609;49.882;8.664;2023-02-25T10:08:49;9.93;;;2.77;;
13085;SDS011;6609;49.882;8.664;2023-02-25T10:11:28;9.60;;;3.10;;
13085;SDS011;6609;49.882;8.664;2023-02-25T10:14:05;8.20;;;2.70;;
13085;SDS011;6609;49.882;8.664;2023-02-25T10:16:46;7.73;;;2.77;;
13085;SDS011;6609;49.882;8.664;2023-02-25T10:19:22;5.37;;;2.93;;
13085;SDS011;6609;49.882;8.664;2023-02-25T10:22:07;6.20;;;2.73;;
13085;SDS011;6609;49.882;8.664;2023-02-25T10:24:45;9.10;;;3.00;;
13085;SDS011;6609;49.882;8.664;2023-02-25T10:27:16;5.63;;;2.77;;
13085;SDS011;6609;49.882;8.664;2023-02-25T10:29:47;6.57;;;2.80;;
13085;SDS011;6609;49.882;8.664;2023-02-25T10:32:20;7.83;;;2.27;;
13085;SDS011;6609;49.882;8.664;2023-02-25T10:34:49;9.07;;;2.60;;
13085;SDS011;6609;49.882;8.664;2023-02-25T10:37:19;2.63;;;1.77;;
13085;SDS011;6609;49.882;8.664;2023-02-25T10:39:51;4.87;;;2.00;;
13085;SDS011;6609;49.882;8.664;2023-02-25T10:42:21;6.93;;;2.57;;
13085;SDS011;6609;49.882;8.664;2023-02-25T10:44:49;4.00;;;2.00;;
13085;SDS011;6609;49.882;8.664;2023-02-25T10:47:17;6.77;;;2.40;;
13085;SDS011;6609;49.882;8.664;2023-02-25T10:53:01;5.17;;;2.27;;
13085;SDS011;6609;49.882;8.664;2023-02-25T10:55:36;6.60;;;2.07;;
13085;SDS011;6609;49.882;8.664;2023-02-25T10:58:30;8.40;;;2.40;;
13085;SDS011;6609;49.882;8.664;2023-02-25T11:01:00;6.13;;;2.40;;
13085;SDS011;6609;49.882;8.664;2023-02-25T11:03:32;6.83;;;2.83;;
13085;SDS011;6609;49.882;8.664;2023-02-25T11:08:49;4.87;;;2.30;;
13085;SDS011;6609;49.882;8.664;2023-02-25T11:11:18;8.93;;;2.07;;
13085;SDS011;6609;49.882;8.664;2023-02-25T11:13:53;7.10;;;2.00;;
13085;SDS011;6609;49.882;8.664;2023-02-25T11:16:32;6.13;;;2.07;;
13085;SDS011;6609;49.882;8.664;2023-02-25T11:19:04;3.63;;;1.93;;
13085;SDS011;6609;49.882;8.664;2023-02-25T11:21:39;6.70;;;2.60;;
13085;SDS011;6609;49.882;8.664;2023-02-25T11:24:09;4.20;;;2.03;;
13085;SDS011;6609;49.882;8.664;2023-02-25T11:26:40;5.43;;;2.40;;
13085;SDS011;6609;49.882;8.664;2023-02-25T11:29:11;6.27;;;2.40;;
13085;SDS011;6609;49.882;8.664;2023-02-25T11:31:39;6.13;;;2.37;;
13085;SDS011;6609;49.882;8.664;2023-02-25T11:34:13;8.47;;;2.47;;
13085;SDS011;6609;49.882;8.664;2023-02-25T11:36:44;6.30;;;2.20;;
13085;SDS011;6609;49.882;8.664;2023-02-25T11:39:16;6.30;;;1.90;;
13085;SDS011;6609;49.882;8.664;2023-02-25T11:41:44;4.37;;;2.20;;
13085;SDS011;6609;49.882;8.664;2023-02-25T11:44:21;4.40;;;2.50;;
13085;SDS011;6609;49.882;8.664;2023-02-25T11:46:55;5.43;;;2.10;;
13085;SDS011;6609;49.882;8.664;2023-02-25T11:49:26;5.97;;;2.40;;
13085;SDS011;6609;49.882;8.664;2023-02-25T11:52:03;6.40;;;2.50;;
13085;SDS011;6609;49.882;8.664;2023-02-25T11:54:36;7.47;;;2.50;;
13085;SDS011;6609;49.882;8.664;2023-02-25T11:57:11;5.37;;;2.10;;
13085;SDS011;6609;49.882;8.664;2023-02-25T11:59:47;5.03;;;2.00;;
13085;SDS011;6609;49.882;8.664;2023-02-25T12:02:32;6.90;;;2.60;;
13085;SDS011;6609;49.882;8.664;2023-02-25T12:05:15;7.17;;;2.60;;
13085;SDS011;6609;49.882;8.664;2023-02-25T12:08:23;5.93;;;2.40;;
13085;SDS011;6609;49.882;8.664;2023-02-25T12:14:22;8.10;;;2.90;;
13085;SDS011;6609;49.882;8.664;2023-02-25T12:17:36;6.70;;;2.70;;
13085;SDS011;6609;49.882;8.664;2023-02-25T12:20:49;8.43;;;2.93;;
13085;SDS011;6609;49.882;8.664;2023-02-25T12:26:52;5.53;;;2.10;;
13085;SDS011;6609;49.882;8.664;2023-02-25T12:29:41;8.93;;;3.00;;
13085;SDS011;6609;49.882;8.664;2023-02-25T12:35:17;5.87;;;3.67;;
13085;SDS011;6609;49.882;8.664;2023-02-25T12:37:58;4.23;;;2.40;;
13085;SDS011;6609;49.882;8.664;2023-02-25T12:40:57;3.53;;;2.20;;
13085;SDS011;6609;49.882;8.664;2023-02-25T12:43:38;5.57;;;2.67;;
13085;SDS011;6609;49.882;8.664;2023-02-25T12:46:15;6.47;;;3.20;;
13085;SDS011;6609;49.882;8.664;2023-02-25T12:48:57;7.57;;;2.67;;
13085;SDS011;6609;49.882;8.664;2023-02-25T12:51:46;11.17;;;4.33;;
13085;SDS011;6609;49.882;8.664;2023-02-25T12:54:41;6.83;;;2.97;;
13085;SDS011;6609;49.882;8.664;2023-02-25T12:57:31;7.30;;;3.30;;
13085;SDS011;6609;49.882;8.664;2023-02-25T13:00:21;5.77;;;2.17;;
13085;SDS011;6609;49.882;8.664;2023-02-25T13:03:13;6.60;;;3.63;;
13085;SDS011;6609;49.882;8.664;2023-02-25T13:05:58;6.50;;;2.90;;
13085;SDS011;6609;49.882;8.664;2023-02-25T13:08:59;8.13;;;4.07;;
13085;SDS011;6609;49.882;8.664;2023-02-25T13:11:49;5.83;;;2.90;;
13085;SDS011;6609;49.882;8.664;2023-02-25T13:17:19;9.37;;;3.10;;
13085;SDS011;6609;49.882;8.664;2023-02-25T13:19:55;7.33;;;2.90;;
13085;SDS011;6609;49.882;8.664;2023-02-25T13:22:31;9.63;;;3.10;;
13085;SDS011;6609;49.882;8.664;2023-02-25T13:25:06;8.00;;;2.67;;
13085;SDS011;6609;49.882;8.664;2023-02-25T13:27:55;9.97;;;3.13;;
13085;SDS011;6609;49.882;8.664;2023-02-25T13:30:32;4.43;;;2.47;;
13085;SDS011;6609;49.882;8.664;2023-02-25T13:33:09;5.30;;;3.10;;
13085;SDS011;6609;49.882;8.664;2023-02-25T13:35:50;7.67;;;2.93;;
13085;SDS011;6609;49.882;8.664;2023-02-25T13:41:29;8.23;;;3.13;;
13085;SDS011;6609;49.882;8.664;2023-02-25T13:47:21;6.00;;;2.90;;
13085;SDS011;6609;49.882;8.664;2023-02-25T13:50:26;5.30;;;2.30;;
13085;SDS011;6609;49.882;8.664;2023-02-25T13:56:08;3.90;;;2.23;;
13085;SDS011;6609;49.882;8.664;2023-02-25T13:58:43;7.93;;;3.17;;
13085;SDS011;6609;49.882;8.664;2023-02-25T14:01:30;3.93;;;2.10;;
13085;SDS011;6609;49.882;8.664;2023-02-25T14:04:16;3.77;;;1.70;;
13085;SDS011;6609;49.882;8.664;2023-02-25T14:07:15;6.20;;;2.33;;
13085;SDS011;6609;49.882;8.664;2023-02-25T14:09:48;5.07;;;2.63;;
13085;SDS011;6609;49.882;8.664;2023-02-25T14:12:25;3.37;;;2.03;;
13085;SDS011;6609;49.882;8.664;2023-02-25T14:15:11;3.53;;;1.90;;
13085;SDS011;6609;49.882;8.664;2023-02-25T14:17:52;5.33;;;2.47;;
13085;SDS011;6609;49.882;8.664;2023-02-25T14:20:38;4.33;;;1.87;;
13085;SDS011;6609;49.882;8.664;2023-02-25T14:23:11;3.40;;;1.80;;
13085;SDS011;6609;49.882;8.664;2023-02-25T14:25:50;4.73;;;1.70;;
13085;SDS011;6609;49.882;8.664;2023-02-25T14:28:29;7.37;;;2.20;;
13085;SDS011;6609;49.882;8.664;2023-02-25T14:31:09;4.27;;;1.97;;
13085;SDS011;6609;49.882;8.664;2023-02-25T14:34:02;2.93;;;1.30;;
13085;SDS011;6609;49.882;8.664;2023-02-25T14:37:03;4.30;;;1.50;;
13085;SDS011;6609;49.882;8.664;2023-02-25T14:39:42;3.73;;;1.83;;
13085;SDS011;6609;49.882;8.664;2023-02-25T14:42:27;3.43;;;1.60;;
13085;SDS011;6609;49.882;8.664;2023-02-25T14:45:04;4.53;;;1.67;;
13085;SDS011;6609;49.882;8.664;2023-02-25T14:47:44;3.50;;;1.57;;
13085;SDS011;6609;49.882;8.664;2023-02-25T14:50:14;5.53;;;2.50;;
13085;SDS011;6609;49.882;8.664;2023-02-25T14:52:55;6.30;;;2.43;;
13085;SDS011;6609;49.882;8.664;2023-02-25T15:01:51;4.67;;;2.10;;
13085;SDS011;6609;49.882;8.664;2023-02-25T15:04:42;5.17;;;2.33;;
13085;SDS011;6609;49.882;8.664;2023-02-25T15:07:34;4.60;;;2.13;;
13085;SDS011;6609;49.882;8.664;2023-02-25T15:10:21;4.00;;;2.13;;
13085;SDS011;6609;49.882;8.664;2023-02-25T15:16:27;7.63;;;3.60;;
13085;SDS011;6609;49.882;8.664;2023-02-25T15:19:13;5.37;;;2.70;;
13085;SDS011;6609;49.882;8.664;2023-02-25T15:24:44;8.30;;;2.87;;
13085;SDS011;6609;49.882;8.664;2023-02-25T15:27:31;4.97;;;2.70;;
13085;SDS011;6609;49.882;8.664;2023-02-25T15:30:08;9.83;;;3.73;;
13085;SDS011;6609;49.882;8.664;2023-02-25T15:32:52;4.83;;;2.10;;
13085;SDS011;6609;49.882;8.664;2023-02-25T15:35:50;3.13;;;1.70;;
13085;SDS011;6609;49.882;8.664;2023-02-25T15:38:19;4.70;;;1.77;;
13085;SDS011;6609;49.882;8.664;2023-02-25T15:40:49;5.93;;;3.17;;
13085;SDS011;6609;49.882;8.664;2023-02-25T15:43:34;6.07;;;2.37;;
13085;SDS011;6609;49.882;8.664;2023-02-25T15:46:24;5.80;;;2.63;;
13085;SDS011;6609;49.882;8.664;2023-02-25T15:49:16;4.53;;;1.90;;
13085;SDS011;6609;49.882;8.664;2023-02-25T15:51:48;8.23;;;2.67;;
13085;SDS011;6609;49.882;8.664;2023-02-25T15:59:56;6.90;;;2.40;;
13085;SDS011;6609;49.882;8.664;2023-02-25T16:02:33;6.80;;;2.70;;
13085;SDS011;6609;49.882;8.664;2023-02-25T16:05:14;8.80;;;3.10;;
13085;SDS011;6609;49.882;8.664;2023-02-25T16:07:44;9.13;;;2.97;;
13085;SDS011;6609;49.882;8.664;2023-02-25T16:10:17;9.63;;;3.60;;
13085;SDS011;6609;49.882;8.664;2023-02-25T16:12:49;9.80;;;3.87;;
13085;SDS011;6609;49.882;8.664;2023-02-25T16:15:20;6.53;;;2.60;;
13085;SDS011;6609;49.882;8.664;2023-02-25T16:17:47;12.10;;;3.43;;
13085;SDS011;6609;49.882;8.664;2023-02-25T16:20:15;7.80;;;2.53;;
13085;SDS011;6609;49.882;8.664;2023-02-25T16:22:45;9.90;;;3.23;;